createdAt,value
2023-04-25T00:00:59.000Z,82.3
2023-04-25T00:02:15.000Z,82.2
2023-04-25T00:03:31.000Z,82
2023-04-25T00:04:29.986Z,82.2
2023-04-25T00:06:04.000Z,82.2
2023-04-25T00:07:02.376Z,81.3
2023-04-25T00:08:36.572Z,81.3
2023-04-25T00:09:52.763Z,81.1
2023-04-25T00:11:08.964Z,81.5
2023-04-25T00:12:07.157Z,80.9
2023-04-25T00:13:41.355Z,81.4
2023-04-25T00:14:57.548Z,81
2023-04-25T00:16:13.000Z,80.9
2023-04-25T00:17:10.952Z,81
2023-04-25T00:18:45.000Z,81.1
2023-04-25T00:19:43.343Z,80.4
2023-04-25T00:21:17.000Z,80.8
2023-04-25T00:22:33.724Z,79.9
2023-04-25T00:23:31.930Z,80.2
2023-04-25T00:24:48.124Z,79.5
2023-04-25T00:26:22.314Z,80.1
2023-04-25T00:27:38.000Z,79.9
2023-04-25T00:28:54.000Z,80.1
2023-04-25T00:30:10.897Z,79.8
2023-04-25T00:31:27.091Z,80.3
2023-04-25T00:32:25.297Z,79.7
2023-04-25T00:33:59.000Z,79.9
2023-04-25T00:35:15.687Z,80.2
2023-04-25T00:36:31.885Z,80.9
2023-04-25T00:37:30.079Z,79.9
2023-04-25T00:39:04.000Z,80.2
2023-04-25T00:40:20.000Z,80.5
2023-04-25T00:41:36.000Z,80.2
2023-04-25T00:42:34.862Z,80.5
2023-04-25T00:44:09.181Z,80
2023-04-25T00:45:07.375Z,80.3
2023-04-25T00:46:41.571Z,80.6
2023-04-25T00:47:39.766Z,79.9
2023-04-25T00:49:13.962Z,80
2023-04-25T00:50:30.000Z,80.3
2023-04-25T00:51:46.352Z,80.2
2023-04-25T00:53:02.000Z,80
2023-04-25T00:54:18.000Z,80.3
2023-04-25T00:55:16.940Z,80.8
2023-04-25T00:56:51.000Z,80.9
2023-04-25T00:57:49.331Z,80.3
2023-04-25T00:59:49.000Z,80.7
2023-04-25T01:00:39.000Z,80.7
2023-04-25T01:01:55.000Z,80.3
2023-04-25T01:03:12.114Z,80.4
2023-04-25T01:04:28.000Z,80.1
2023-04-25T01:05:44.000Z,80.2
2023-04-25T01:07:00.700Z,80.7
2023-04-25T01:08:16.900Z,80.3
2023-04-25T01:09:32.112Z,80.5
2023-04-25T01:10:48.294Z,80.8
2023-04-25T01:12:04.504Z,81.6
2023-04-25T01:13:20.686Z,81
2023-04-25T01:14:36.000Z,81.3
2023-04-25T01:15:53.085Z,80.6
2023-04-25T01:17:09.000Z,81.1
2023-04-25T01:18:25.000Z,80.1
2023-04-25T01:19:41.000Z,80.5
2023-04-25T01:20:39.868Z,80.5
2023-04-25T01:22:14.064Z,80.2
2023-04-25T01:23:30.268Z,80.5
2023-04-25T01:24:28.457Z,80.4
2023-04-25T01:25:44.651Z,80.5
2023-04-25T01:27:18.000Z,80.6
2023-04-25T01:28:17.042Z,80.7
2023-04-25T01:29:51.237Z,80.5
2023-04-25T01:31:07.434Z,81.1
2023-04-25T01:32:23.630Z,81.4
2023-04-25T01:33:21.946Z,81
2023-04-25T01:34:56.145Z,80.5
2023-04-25T01:36:12.331Z,80.9
2023-04-25T01:37:28.541Z,80.7
2023-04-25T01:38:44.735Z,80.6
2023-04-25T01:40:00.931Z,80.8
2023-04-25T01:40:59.119Z,81
2023-04-25T01:42:33.000Z,80.9
2023-04-25T01:43:49.000Z,81.1
2023-04-25T01:45:05.000Z,80.5
2023-04-25T01:46:03.901Z,81
2023-04-25T01:47:38.000Z,80.7
2023-04-25T01:48:54.282Z,81.3
2023-04-25T01:50:10.487Z,81.4
2023-04-25T01:51:26.000Z,81.7
2023-04-25T01:52:42.880Z,81
2023-04-25T01:53:41.073Z,81
2023-04-25T01:55:15.265Z,81.3
2023-04-25T01:56:31.464Z,82
2023-04-25T01:57:47.660Z,81
2023-04-25T01:58:44.872Z,81.5
2023-04-25T02:00:19.060Z,80.9
2023-04-25T02:01:17.263Z,81.8
2023-04-25T02:02:51.458Z,80.6
2023-04-25T02:04:07.662Z,80.8
2023-04-25T02:05:23.849Z,81.2
2023-04-25T02:06:22.043Z,81.4
2023-04-25T02:07:38.240Z,81.3
2023-04-25T02:09:12.435Z,81.2
2023-04-25T02:10:28.636Z,81.3
2023-04-25T02:11:26.827Z,81.2
2023-04-25T02:13:01.022Z,81.3
2023-04-25T02:13:59.218Z,80.8
2023-04-25T02:15:59.000Z,81.1
2023-04-25T02:16:48.000Z,81.7
2023-04-25T02:18:31.000Z,82
2023-04-25T02:19:21.012Z,80.9
2023-04-25T02:20:37.000Z,81.4
2023-04-25T02:21:53.000Z,81.5
2023-04-25T02:23:09.606Z,81.5
2023-04-25T02:24:07.800Z,81.7
2023-04-25T02:25:41.988Z,81.5
2023-04-25T02:26:40.190Z,81.7
2023-04-25T02:28:14.386Z,81.3
2023-04-25T02:29:30.583Z,81.2
2023-04-25T02:30:46.781Z,82.5
2023-04-25T02:31:44.974Z,82.5
2023-04-25T02:33:18.000Z,81.5
2023-04-25T02:34:34.000Z,81.3
2023-04-25T02:35:50.578Z,81.3
2023-04-25T02:37:06.773Z,82.5
2023-04-25T02:38:22.000Z,81.5
2023-04-25T02:39:39.167Z,81.8
2023-04-25T02:40:55.000Z,81.1
2023-04-25T02:41:53.556Z,81.3
2023-04-25T02:43:27.000Z,82.1
2023-04-25T02:44:43.941Z,81.5
2023-04-25T02:46:00.152Z,81.3
2023-04-25T02:47:16.337Z,81.7
2023-04-25T02:48:32.527Z,81.7
2023-04-25T02:49:30.727Z,82.2
2023-04-25T02:51:04.000Z,81.7
2023-04-25T02:52:21.120Z,81.8
2023-04-25T02:53:37.000Z,81.7
2023-04-25T02:54:53.504Z,81.8
2023-04-25T02:56:08.000Z,82.1
2023-04-25T02:57:24.920Z,82.1
2023-04-25T02:58:41.114Z,82
2023-04-25T02:59:57.309Z,81.6
2023-04-25T03:01:13.511Z,81.9
2023-04-25T03:02:29.700Z,82.1
2023-04-25T03:03:27.895Z,82.2
2023-04-25T03:04:44.090Z,82
2023-04-25T03:06:18.000Z,81.8
2023-04-25T03:07:16.481Z,82.1
2023-04-25T03:08:50.000Z,82.4
2023-04-25T03:09:48.872Z,81.9
2023-04-25T03:11:23.000Z,82
2023-04-25T03:12:39.000Z,82.3
2023-04-25T03:13:55.000Z,82.2
2023-04-25T03:14:53.654Z,82.6
2023-04-25T03:16:27.846Z,82.4
2023-04-25T03:17:25.062Z,82
2023-04-25T03:19:25.000Z,82
2023-04-25T03:20:15.000Z,82.4
2023-04-25T03:21:31.000Z,82.6
2023-04-25T03:22:29.845Z,82.1
2023-04-25T03:24:04.047Z,82.4
2023-04-25T03:25:20.237Z,82.6
2023-04-25T03:26:18.433Z,82.6
2023-04-25T03:27:34.627Z,82.8
2023-04-25T03:29:08.000Z,82.4
2023-04-25T03:30:25.012Z,82.5
2023-04-25T03:31:41.214Z,82.8
2023-04-25T03:32:57.404Z,82.7
2023-04-25T03:34:12.612Z,84.2
2023-04-25T03:35:10.816Z,82.9
2023-04-25T03:36:45.000Z,82.3
2023-04-25T03:38:01.000Z,83.4
2023-04-25T03:39:17.396Z,83
2023-04-25T03:40:15.597Z,83.2
2023-04-25T03:41:49.794Z,82.6
2023-04-25T03:43:05.988Z,82.8
2023-04-25T03:44:22.185Z,83
2023-04-25T03:45:20.378Z,83.5
2023-04-25T03:46:54.000Z,83
2023-04-25T03:47:52.764Z,82.7
2023-04-25T03:49:26.000Z,83.7
2023-04-25T03:50:43.000Z,82.9
2023-04-25T03:51:59.000Z,83.2
2023-04-25T03:52:57.537Z,83.1
2023-04-25T03:54:30.742Z,82.5
2023-04-25T03:55:46.935Z,83.2
2023-04-25T03:56:45.134Z,83.3
2023-04-25T03:58:18.341Z,83
2023-04-25T03:59:34.000Z,83.1
2023-04-25T04:00:32.735Z,83.2
2023-04-25T04:02:06.000Z,83.7
2023-04-25T04:03:23.000Z,83
2023-04-25T04:04:39.000Z,83.2
2023-04-25T04:05:37.508Z,83.5
2023-04-25T04:07:11.000Z,83.3
2023-04-25T04:08:27.886Z,83
2023-04-25T04:09:44.092Z,83.4
2023-04-25T04:10:42.281Z,83.6
2023-04-25T04:12:16.471Z,83.1
2023-04-25T04:13:14.667Z,83.4
2023-04-25T04:14:47.877Z,83
2023-04-25T04:16:04.000Z,83.2
2023-04-25T04:17:02.263Z,83.3
2023-04-25T04:18:36.463Z,83.2
2023-04-25T04:19:52.650Z,83.4
2023-04-25T04:20:50.844Z,83.3
2023-04-25T04:22:25.037Z,82.5
2023-04-25T04:23:41.223Z,83
2023-04-25T04:24:39.423Z,83.3
2023-04-25T04:26:39.000Z,83.2
2023-04-25T04:27:29.000Z,83
2023-04-25T04:28:46.003Z,82.9
2023-04-25T04:30:02.000Z,84.2
2023-04-25T04:31:18.000Z,82.9
2023-04-25T04:32:34.591Z,83.4
2023-04-25T04:33:31.793Z,83.1
2023-04-25T04:35:05.000Z,83.1
2023-04-25T04:36:04.180Z,83.2
2023-04-25T04:37:38.000Z,83
2023-04-25T04:38:36.566Z,82.9
2023-04-25T04:40:10.000Z,83.1
2023-04-25T04:41:26.000Z,83.4
2023-04-25T04:42:43.000Z,82.5
2023-04-25T04:43:41.339Z,83
2023-04-25T04:45:15.533Z,83
2023-04-25T04:46:13.726Z,83.1
2023-04-25T04:47:47.918Z,83.1
2023-04-25T04:49:04.105Z,82.6
2023-04-25T04:50:20.000Z,82.5
2023-04-25T04:51:18.620Z,83.1
2023-04-25T04:52:52.000Z,83.5
2023-04-25T04:54:09.000Z,82.3
2023-04-25T04:55:25.000Z,82.6
2023-04-25T04:56:23.394Z,82.8
2023-04-25T04:57:57.000Z,84
2023-04-25T04:58:55.781Z,83.5
2023-04-25T05:00:29.000Z,83
2023-04-25T05:01:28.168Z,82.8
2023-04-25T05:03:02.363Z,83
2023-04-25T05:04:00.555Z,83.1
2023-04-25T05:05:34.000Z,82.7
2023-04-25T05:06:50.000Z,83.8
2023-04-25T05:08:07.128Z,82.8
2023-04-25T05:09:22.338Z,82.4
2023-04-25T05:10:38.548Z,82.4
2023-04-25T05:11:36.731Z,83
2023-04-25T05:13:10.933Z,83.3
2023-04-25T05:14:27.116Z,82.5
2023-04-25T05:15:43.000Z,82.7
2023-04-25T05:16:41.504Z,83.1
2023-04-25T05:18:15.697Z,82.9
2023-04-25T05:19:31.000Z,82.5
2023-04-25T05:20:30.084Z,83
2023-04-25T05:22:04.287Z,83.3
2023-04-25T05:23:20.470Z,83.1
2023-04-25T05:24:36.000Z,82.5
2023-04-25T05:25:52.000Z,82.3
2023-04-25T05:26:50.066Z,82.7
2023-04-25T05:28:24.253Z,82.6
2023-04-25T05:29:22.454Z,82.6
2023-04-25T05:30:56.000Z,83
2023-04-25T05:32:12.000Z,82.9
2023-04-25T05:33:29.032Z,83.2
2023-04-25T05:34:45.220Z,82.7
2023-04-25T05:36:01.421Z,82.7
2023-04-25T05:37:17.622Z,82.7
2023-04-25T05:38:33.805Z,83.1
2023-04-25T05:39:49.999Z,83.6
2023-04-25T05:41:06.198Z,82.9
2023-04-25T05:42:04.387Z,82.8
2023-04-25T05:43:37.000Z,82.8
2023-04-25T05:44:53.000Z,83
2023-04-25T05:46:09.000Z,83.3
2023-04-25T05:47:08.176Z,83.2
2023-04-25T05:48:42.000Z,83.1
2023-04-25T05:49:40.563Z,83.7
2023-04-25T05:51:14.753Z,83.6
2023-04-25T05:52:30.942Z,83.9
2023-04-25T05:53:47.000Z,83.9
2023-04-25T05:54:45.336Z,84.9
2023-04-25T05:56:19.000Z,84.3
2023-04-25T05:57:35.000Z,83.5
2023-04-25T05:58:51.915Z,84.2
2023-04-25T06:00:08.101Z,84.4
2023-04-25T06:01:23.319Z,84.4
2023-04-25T06:02:39.519Z,84.2
2023-04-25T06:03:55.704Z,84.5
2023-04-25T06:04:53.898Z,85
2023-04-25T06:06:28.092Z,84.6
2023-04-25T06:07:26.285Z,84.6
2023-04-25T06:09:00.000Z,84.8
2023-04-25T06:10:16.672Z,84.5
2023-04-25T06:11:32.863Z,84.6
2023-04-25T06:12:31.059Z,84.7
2023-04-25T06:14:05.245Z,84.7
2023-04-25T06:15:03.445Z,84.4
2023-04-25T06:16:37.000Z,84.7
2023-04-25T06:17:53.000Z,84.3
2023-04-25T06:19:10.000Z,84.5
2023-04-25T06:20:26.000Z,84.8
2023-04-25T06:21:42.421Z,84.5
2023-04-25T06:22:57.000Z,85
2023-04-25T06:24:13.815Z,84.8
2023-04-25T06:25:30.010Z,84.9
2023-04-25T06:26:46.202Z,84.8
2023-04-25T06:27:44.395Z,85
2023-04-25T06:29:44.000Z,84.9
2023-04-25T06:30:16.782Z,84.8
2023-04-25T06:31:50.000Z,84.9
2023-04-25T06:32:49.169Z,84.9
2023-04-25T06:34:23.000Z,84.8
2023-04-25T06:35:39.555Z,85
2023-04-25T06:36:55.748Z,85.3
2023-04-25T06:37:53.942Z,85.1
2023-04-25T06:39:27.152Z,85.2
2023-04-25T06:40:25.345Z,85.2
2023-04-25T06:41:59.533Z,85.5
2023-04-25T06:43:15.736Z,85.6
2023-04-25T06:44:13.925Z,86
2023-04-25T06:45:48.124Z,85.5
2023-04-25T06:47:04.312Z,85.8
2023-04-25T06:48:20.505Z,85.9
2023-04-25T06:49:36.698Z,85.9
2023-04-25T06:50:34.892Z,85.8
2023-04-25T06:52:09.086Z,85.8
2023-04-25T06:53:07.279Z,86.2
2023-04-25T06:54:41.482Z,86.4
2023-04-25T06:55:38.682Z,86.5
2023-04-25T06:57:12.000Z,85.9
2023-04-25T06:58:29.000Z,86.4
2023-04-25T06:59:45.000Z,86.1
2023-04-25T07:01:01.000Z,86.2
2023-04-25T07:02:17.000Z,87.1
2023-04-25T07:03:33.838Z,86.3
2023-04-25T07:04:50.000Z,86.3
2023-04-25T07:06:06.223Z,86.4
2023-04-25T07:07:04.421Z,86.4
2023-04-25T07:08:20.615Z,86.3
2023-04-25T07:09:54.000Z,86.1
2023-04-25T07:11:37.000Z,86.7
2023-04-25T07:12:53.000Z,86.8
2023-04-25T07:13:43.388Z,86.8
2023-04-25T07:14:59.000Z,87.3
2023-04-25T07:15:57.775Z,87.8
2023-04-25T07:17:31.968Z,87.4
2023-04-25T07:18:48.174Z,87.7
2023-04-25T07:20:03.367Z,87.8
2023-04-25T07:21:19.000Z,88.1
2023-04-25T07:22:35.000Z,87.2
2023-04-25T07:23:51.943Z,86.9
2023-04-25T07:25:08.144Z,87.5
2023-04-25T07:26:24.000Z,87.7
2023-04-25T07:27:40.000Z,87.2
2023-04-25T07:28:38.724Z,87.2
2023-04-25T07:30:12.000Z,87.2
2023-04-25T07:31:11.111Z,87.3
2023-04-25T07:32:45.000Z,87
2023-04-25T07:34:01.493Z,85.2
2023-04-25T07:35:17.691Z,84.9
2023-04-25T07:36:15.885Z,84.2
2023-04-25T07:37:50.079Z,83.5
2023-04-25T07:39:06.271Z,83.1
2023-04-25T07:40:22.000Z,83
2023-04-25T07:41:38.664Z,82.9
2023-04-25T07:42:53.861Z,82.7
2023-04-25T07:43:52.061Z,81.9
2023-04-25T07:45:08.254Z,82.7
2023-04-25T07:46:24.447Z,82.3
2023-04-25T07:47:58.000Z,80.6
2023-04-25T07:48:56.834Z,80.8
2023-04-25T07:50:13.027Z,81.1
2023-04-25T07:51:47.000Z,80.8
2023-04-25T07:53:03.408Z,80.9
2023-04-25T07:54:01.606Z,80.6
2023-04-25T07:55:35.799Z,80.4
2023-04-25T07:56:33.993Z,80.7
2023-04-25T07:58:08.183Z,80.4
2023-04-25T07:59:05.395Z,79.8
2023-04-25T08:00:39.588Z,79.9
2023-04-25T08:01:37.782Z,79.3
2023-04-25T08:03:11.975Z,79.2
2023-04-25T08:04:28.168Z,79.1
2023-04-25T08:05:44.367Z,77.8
2023-04-25T08:07:00.554Z,75.9
2023-04-25T08:08:16.000Z,76.4
2023-04-25T08:09:14.942Z,76
2023-04-25T08:10:49.135Z,76.4
2023-04-25T08:11:47.329Z,75.7
2023-04-25T08:13:21.534Z,76.2
2023-04-25T08:14:37.715Z,76.6
2023-04-25T08:15:53.910Z,76.8
2023-04-25T08:17:09.000Z,76.7
2023-04-25T08:18:25.321Z,77.1
2023-04-25T08:19:23.508Z,76.7
2023-04-25T08:20:57.709Z,77.5
2023-04-25T08:22:13.887Z,77
2023-04-25T08:23:12.087Z,76.2
2023-04-25T08:24:28.280Z,74.8
2023-04-25T08:26:02.473Z,75.1
2023-04-25T08:27:00.666Z,75.1
2023-04-25T08:28:34.865Z,75.3
2023-04-25T08:29:51.000Z,74.6
2023-04-25T08:31:07.253Z,74.3
2023-04-25T08:32:05.438Z,73.6
2023-04-25T08:33:39.000Z,74.1
2023-04-25T08:34:37.945Z,74.1
2023-04-25T08:36:12.000Z,72.7
2023-04-25T08:37:10.330Z,72.5
2023-04-25T08:38:44.523Z,71.1
2023-04-25T08:40:00.000Z,71.4
2023-04-25T08:41:16.000Z,71.1
2023-04-25T08:42:33.103Z,71.7
2023-04-25T08:43:49.000Z,71
2023-04-25T08:45:05.482Z,71.3
2023-04-25T08:46:21.675Z,70.5
2023-04-25T08:47:37.000Z,70.3
2023-04-25T08:48:54.000Z,68.8
2023-04-25T08:50:10.258Z,68.5
2023-04-25T08:51:25.469Z,68.5
2023-04-25T08:52:23.664Z,66.3
2023-04-25T08:53:57.862Z,66.3
2023-04-25T08:55:14.050Z,65
2023-04-25T08:56:30.000Z,65.3
2023-04-25T08:57:28.436Z,65.4
2023-04-25T08:59:02.628Z,65.9
2023-04-25T09:00:00.822Z,66.2
2023-04-25T09:01:35.000Z,66.3
2023-04-25T09:02:33.208Z,65.8
2023-04-25T09:04:07.000Z,65.9
2023-04-25T09:05:23.000Z,65.8
2023-04-25T09:06:39.000Z,65.3
2023-04-25T09:07:55.000Z,63.7
2023-04-25T09:09:12.000Z,63.6
2023-04-25T09:10:10.366Z,63.7
2023-04-25T09:11:43.000Z,63.4
2023-04-25T09:12:59.776Z,63.2
2023-04-25T09:14:15.959Z,63.4
2023-04-25T09:15:14.155Z,63.7
2023-04-25T09:16:30.348Z,63.6
2023-04-25T09:18:04.549Z,62.2
2023-04-25T09:19:20.000Z,62.7
2023-04-25T09:20:36.000Z,62.3
2023-04-25T09:21:53.000Z,62.1
2023-04-25T09:22:51.312Z,63.1
2023-04-25T09:24:25.506Z,62.4
2023-04-25T09:25:41.702Z,62.2
2023-04-25T09:26:57.000Z,62.7
2023-04-25T09:27:56.085Z,62.6
2023-04-25T09:29:29.289Z,63.3
2023-04-25T09:30:27.487Z,62.4
2023-04-25T09:32:01.680Z,63
2023-04-25T09:33:17.000Z,62.9
2023-04-25T09:34:34.066Z,61.8
2023-04-25T09:35:32.259Z,61.1
2023-04-25T09:37:06.465Z,61.2
2023-04-25T09:38:04.644Z,60.6
2023-04-25T09:39:38.835Z,60.1
2023-04-25T09:40:37.030Z,58.1
2023-04-25T09:42:11.000Z,57.1
2023-04-25T09:43:09.416Z,57
2023-04-25T09:45:09.000Z,56.8
2023-04-25T09:45:58.818Z,56.7
2023-04-25T09:46:57.013Z,56.2
2023-04-25T09:48:31.207Z,56.5
2023-04-25T09:49:47.000Z,56.3
2023-04-25T09:51:03.592Z,57.4
2023-04-25T09:52:19.792Z,57
2023-04-25T09:53:35.974Z,56.5
2023-04-25T09:54:52.000Z,56.5
2023-04-25T09:55:50.363Z,56.7
2023-04-25T09:57:24.557Z,56.9
2023-04-25T09:58:40.000Z,56.7
2023-04-25T09:59:56.944Z,57.3
2023-04-25T10:01:13.134Z,56.7
2023-04-25T10:02:28.000Z,55.8
2023-04-25T10:03:26.538Z,56.2
2023-04-25T10:05:00.000Z,56.4
2023-04-25T10:06:16.924Z,55.4
2023-04-25T10:07:33.000Z,55.7
2023-04-25T10:08:31.309Z,56.8
2023-04-25T10:10:05.512Z,56.5
2023-04-25T10:11:21.000Z,56.8
2023-04-25T10:12:37.000Z,56.4
2023-04-25T10:13:54.075Z,56.7
2023-04-25T10:14:52.274Z,56.4
2023-04-25T10:16:26.467Z,56.6
2023-04-25T10:17:42.000Z,55.6
2023-04-25T10:18:58.853Z,54.5
2023-04-25T10:20:15.000Z,54.7
2023-04-25T10:21:31.236Z,54.7
2023-04-25T10:22:47.000Z,55.4
2023-04-25T10:24:03.000Z,55.3
2023-04-25T10:25:46.000Z,55.3
2023-04-25T10:26:35.025Z,56.6
2023-04-25T10:27:51.223Z,55.9
2023-04-25T10:29:07.418Z,56.4
2023-04-25T10:30:23.606Z,57.3
2023-04-25T10:31:39.802Z,56.8
2023-04-25T10:32:55.994Z,56.5
2023-04-25T10:34:12.185Z,55.8
2023-04-25T10:35:28.000Z,55.7
2023-04-25T10:36:44.571Z,55.4
2023-04-25T10:38:00.000Z,55.6
2023-04-25T10:38:58.957Z,55.7
2023-04-25T10:40:33.150Z,55.5
2023-04-25T10:41:31.343Z,55.7
2023-04-25T10:43:04.553Z,56.3
2023-04-25T10:44:20.740Z,55.2
2023-04-25T10:45:36.000Z,55.8
2023-04-25T10:46:53.129Z,55.9
2023-04-25T10:47:51.324Z,56.8
2023-04-25T10:49:25.000Z,56
2023-04-25T10:50:41.000Z,55.7
2023-04-25T10:51:39.903Z,56.3
2023-04-25T10:53:14.091Z,56.1
2023-04-25T10:54:12.289Z,56
2023-04-25T10:55:46.000Z,55.8
2023-04-25T10:56:44.675Z,56.5
2023-04-25T10:58:18.000Z,55.3
2023-04-25T10:59:17.060Z,55.2
2023-04-25T11:00:50.000Z,55.2
2023-04-25T11:02:06.000Z,55.1
2023-04-25T11:03:22.664Z,56.7
2023-04-25T11:04:20.849Z,54.7
2023-04-25T11:05:55.000Z,55.3
2023-04-25T11:07:11.239Z,55.7
2023-04-25T11:08:27.428Z,54.4
2023-04-25T11:09:25.621Z,55
2023-04-25T11:10:59.814Z,55.5
2023-04-25T11:11:58.007Z,54.5
2023-04-25T11:13:32.000Z,54.8
2023-04-25T11:14:48.000Z,55.4
2023-04-25T11:16:04.000Z,56.2
2023-04-25T11:17:02.779Z,55.9
2023-04-25T11:18:35.000Z,56.1
2023-04-25T11:19:52.186Z,57.3
2023-04-25T11:21:08.000Z,58.1
2023-04-25T11:22:24.562Z,57.7
2023-04-25T11:23:40.760Z,56.9
2023-04-25T11:24:56.953Z,56.4
2023-04-25T11:26:13.000Z,55.6
2023-04-25T11:27:29.000Z,55.6
2023-04-25T11:28:45.000Z,54.6
2023-04-25T11:29:43.725Z,54.3
2023-04-25T11:31:17.000Z,54.2
2023-04-25T11:32:34.123Z,54.2
2023-04-25T11:33:50.314Z,52.9
2023-04-25T11:34:47.513Z,53.3
2023-04-25T11:36:21.000Z,53.2
2023-04-25T11:37:37.893Z,52.5
2023-04-25T11:38:54.090Z,52.6
2023-04-25T11:40:10.000Z,53.1
2023-04-25T11:41:26.000Z,51.4
2023-04-25T11:42:42.000Z,51.8
2023-04-25T11:43:58.000Z,51
2023-04-25T11:45:15.059Z,51.8
2023-04-25T11:46:31.250Z,51.6
2023-04-25T11:47:47.444Z,50.9
2023-04-25T11:49:03.631Z,51
2023-04-25T11:50:19.823Z,52.4
2023-04-25T11:51:36.022Z,51.3
2023-04-25T11:52:52.000Z,51.8
2023-04-25T11:54:08.418Z,51.7
2023-04-25T11:55:23.613Z,53
2023-04-25T11:56:39.000Z,52.5
2023-04-25T11:57:38.003Z,52.2
2023-04-25T11:59:38.000Z,52.6
2023-04-25T12:00:28.388Z,52.6
2023-04-25T12:01:44.582Z,53.6
2023-04-25T12:03:00.779Z,53.3
2023-04-25T12:04:16.967Z,53.1
2023-04-25T12:05:33.000Z,53
2023-04-25T12:06:49.000Z,53.3
2023-04-25T12:07:47.546Z,53.3
2023-04-25T12:09:21.000Z,53.7
2023-04-25T12:10:19.932Z,53.8
2023-04-25T12:11:36.124Z,53.9
2023-04-25T12:12:51.333Z,54.2
2023-04-25T12:14:25.000Z,54.5
2023-04-25T12:15:41.000Z,54.4
2023-04-25T12:16:57.000Z,52.6
2023-04-25T12:18:14.000Z,52.4
2023-04-25T12:19:30.310Z,51.8
2023-04-25T12:20:28.492Z,52.8
2023-04-25T12:22:02.688Z,52
2023-04-25T12:23:00.878Z,52.1
2023-04-25T12:24:17.071Z,52
2023-04-25T12:25:33.264Z,51
2023-04-25T12:27:07.457Z,50.4
2023-04-25T12:28:05.650Z,50.4
2023-04-25T12:29:38.000Z,52.4
2023-04-25T12:30:55.050Z,51.1
2023-04-25T12:31:53.242Z,50.2
2023-04-25T12:33:08.456Z,50.5
2023-04-25T12:34:42.649Z,50.2
2023-04-25T12:35:58.843Z,51.1
2023-04-25T12:37:15.035Z,52.3
2023-04-25T12:38:13.228Z,50.3
2023-04-25T12:39:29.421Z,51.6
2023-04-25T12:40:45.614Z,51.2
2023-04-25T12:42:19.000Z,51.3
2023-04-25T12:43:36.000Z,51.4
2023-04-25T12:44:52.190Z,51.5
2023-04-25T12:45:50.387Z,51.8
2023-04-25T12:47:24.000Z,52.1
2023-04-25T12:48:22.773Z,52.5
2023-04-25T12:49:55.000Z,52.9
2023-04-25T12:51:12.173Z,52.2
2023-04-25T12:52:28.000Z,51.7
2023-04-25T12:53:44.564Z,51
2023-04-25T12:55:00.764Z,50.4
2023-04-25T12:56:16.946Z,51.8
2023-04-25T12:57:33.000Z,49.9
2023-04-25T12:58:31.332Z,50.2
2023-04-25T13:00:05.000Z,50.4
2023-04-25T13:01:03.718Z,51.2
2023-04-25T13:02:37.910Z,50.9
2023-04-25T13:03:54.099Z,49.9
2023-04-25T13:04:52.296Z,51.2
2023-04-25T13:06:08.489Z,50.6
2023-04-25T13:07:42.689Z,50.9
2023-04-25T13:08:58.875Z,51.3
2023-04-25T13:10:15.000Z,51.3
2023-04-25T13:11:13.260Z,50.6
2023-04-25T13:12:46.483Z,51.9
2023-04-25T13:14:02.662Z,51.4
2023-04-25T13:15:18.857Z,50.2
2023-04-25T13:16:17.051Z,50.6
2023-04-25T13:17:51.245Z,50.6
2023-04-25T13:18:49.439Z,50.8
2023-04-25T13:20:23.632Z,49.2
2023-04-25T13:21:39.000Z,49.6
2023-04-25T13:22:56.000Z,50.7
2023-04-25T13:23:54.215Z,51.2
2023-04-25T13:25:28.000Z,51
2023-04-25T13:26:44.000Z,52
2023-04-25T13:28:00.000Z,52.1
2023-04-25T13:29:16.995Z,52
2023-04-25T13:30:33.000Z,52.4
2023-04-25T13:31:49.393Z,53.8
2023-04-25T13:33:04.595Z,52.6
2023-04-25T13:34:20.000Z,52.2
2023-04-25T13:35:36.000Z,53
2023-04-25T13:36:35.176Z,53.3
2023-04-25T13:38:09.000Z,53
2023-04-25T13:39:07.566Z,53.6
2023-04-25T13:40:41.765Z,53.8
2023-04-25T13:41:57.965Z,53.4
2023-04-25T13:43:14.149Z,53.2
2023-04-25T13:44:12.345Z,53.4
2023-04-25T13:45:46.000Z,53.5
2023-04-25T13:47:02.000Z,53.8
2023-04-25T13:48:18.000Z,53.9
2023-04-25T13:49:17.125Z,53.4
2023-04-25T13:50:50.331Z,53.8
2023-04-25T13:51:48.530Z,53.5
2023-04-25T13:53:22.000Z,53.3
2023-04-25T13:54:20.920Z,54.1
2023-04-25T13:55:55.000Z,53.3
2023-04-25T13:56:53.310Z,54.6
2023-04-25T13:58:27.506Z,53.5
2023-04-25T13:59:43.000Z,54.5
2023-04-25T14:00:59.000Z,55.1
2023-04-25T14:01:58.090Z,55.6
2023-04-25T14:03:32.285Z,54.6
2023-04-25T14:04:30.480Z,54.9
2023-04-25T14:06:04.000Z,54.9
2023-04-25T14:07:02.870Z,55.3
2023-04-25T14:08:36.000Z,55.4
2023-04-25T14:09:34.276Z,56.1
2023-04-25T14:11:08.471Z,54.6
2023-04-25T14:12:24.000Z,54.7
2023-04-25T14:13:40.000Z,54.7
2023-04-25T14:14:39.056Z,54.8
2023-04-25T14:16:13.000Z,55.8
2023-04-25T14:17:11.445Z,55.4
2023-04-25T14:18:45.644Z,56.8
2023-04-25T14:20:01.849Z,56.4
2023-04-25T14:21:18.031Z,56.8
2023-04-25T14:22:34.221Z,57
2023-04-25T14:23:50.000Z,56.3
2023-04-25T14:25:06.615Z,56.4
2023-04-25T14:26:22.000Z,57
2023-04-25T14:27:21.005Z,56.6
2023-04-25T14:28:54.215Z,57.4
2023-04-25T14:29:52.410Z,56.1
2023-04-25T14:31:26.605Z,55
2023-04-25T14:32:24.800Z,54.6
2023-04-25T14:33:58.995Z,54.8
2023-04-25T14:34:57.190Z,55.3
2023-04-25T14:36:13.385Z,55.1
2023-04-25T14:37:47.000Z,54.9
2023-04-25T14:39:03.000Z,54.9
2023-04-25T14:40:19.966Z,54.6
2023-04-25T14:41:36.166Z,55.1
2023-04-25T14:42:34.359Z,55
2023-04-25T14:44:08.554Z,55.1
2023-04-25T14:45:06.749Z,56.2
2023-04-25T14:46:40.944Z,55.8
2023-04-25T14:47:57.134Z,56.2
2023-04-25T14:49:13.000Z,56.7
2023-04-25T14:50:29.000Z,57.1
2023-04-25T14:51:45.731Z,57.1
2023-04-25T14:52:42.934Z,57.4
2023-04-25T14:54:17.130Z,58
2023-04-25T14:55:33.324Z,58.4
2023-04-25T14:56:49.520Z,58.5
2023-04-25T14:57:47.714Z,58.1
2023-04-25T14:59:21.908Z,58.5
2023-04-25T15:00:20.104Z,58.8
2023-04-25T15:01:54.000Z,59.1
2023-04-25T15:03:10.494Z,58.7
2023-04-25T15:04:26.000Z,59.9
2023-04-25T15:05:42.000Z,59.5
2023-04-25T15:06:59.080Z,58.5
2023-04-25T15:08:15.276Z,58.9
2023-04-25T15:09:30.000Z,59.5
2023-04-25T15:10:46.679Z,59
2023-04-25T15:12:02.000Z,59.2
2023-04-25T15:13:01.069Z,58.8
2023-04-25T15:14:35.000Z,59.1
2023-04-25T15:15:51.000Z,58.8
2023-04-25T15:17:07.000Z,58.5
2023-04-25T15:18:23.850Z,58.5
2023-04-25T15:19:40.044Z,58.6
2023-04-25T15:20:38.238Z,58.9
2023-04-25T15:22:12.000Z,57.9
2023-04-25T15:23:28.000Z,57.4
2023-04-25T15:24:44.824Z,57.7
2023-04-25T15:25:43.018Z,57.3
2023-04-25T15:27:17.213Z,57.2
2023-04-25T15:28:33.000Z,56.4
2023-04-25T15:29:49.605Z,56.2
2023-04-25T15:30:46.814Z,56.2
2023-04-25T15:32:21.000Z,56.4
2023-04-25T15:33:19.204Z,55.5
2023-04-25T15:34:53.402Z,54.6
2023-04-25T15:36:09.000Z,55.9
2023-04-25T15:37:25.796Z,54.7
2023-04-25T15:38:41.000Z,54.8
2023-04-25T15:39:58.000Z,54.9
2023-04-25T15:41:14.373Z,54.7
2023-04-25T15:42:30.000Z,54.4
2023-04-25T15:43:28.763Z,55.8
2023-04-25T15:45:02.954Z,55
2023-04-25T15:46:19.159Z,55.9
2023-04-25T15:47:34.000Z,56.2
2023-04-25T15:48:50.564Z,55.5
2023-04-25T15:50:06.756Z,55.3
2023-04-25T15:51:22.950Z,55.6
2023-04-25T15:52:39.157Z,55.6
2023-04-25T15:53:55.000Z,55.8
2023-04-25T15:55:11.000Z,56.1
2023-04-25T15:56:27.728Z,57
2023-04-25T15:57:43.000Z,56.9
2023-04-25T15:58:42.118Z,57.1
2023-04-25T16:00:16.000Z,57.3
2023-04-25T16:01:32.504Z,57.3
2023-04-25T16:02:48.703Z,57.4
2023-04-25T16:04:31.000Z,57.3
2023-04-25T16:05:21.093Z,56.3
2023-04-25T16:06:37.288Z,56.7
2023-04-25T16:07:35.483Z,56.3
2023-04-25T16:09:09.679Z,56.6
2023-04-25T16:10:24.000Z,55.3
2023-04-25T16:11:41.000Z,55.3
2023-04-25T16:12:57.000Z,54.7
2023-04-25T16:14:13.480Z,54
2023-04-25T16:15:11.669Z,53.5
2023-04-25T16:16:45.863Z,53.8
2023-04-25T16:18:02.059Z,53.3
2023-04-25T16:19:18.000Z,52.8
2023-04-25T16:20:34.461Z,53.5
2023-04-25T16:21:32.643Z,53.7
2023-04-25T16:23:06.000Z,53.4
2023-04-25T16:24:05.033Z,54.8
2023-04-25T16:25:39.000Z,54.2
2023-04-25T16:26:55.433Z,54.3
2023-04-25T16:28:10.000Z,55
2023-04-25T16:29:08.829Z,54.3
2023-04-25T16:30:43.000Z,53.5
2023-04-25T16:31:59.000Z,54
2023-04-25T16:33:15.000Z,54
2023-04-25T16:34:31.606Z,54.3
2023-04-25T16:35:47.807Z,54
2023-04-25T16:36:45.999Z,53.7
2023-04-25T16:38:20.200Z,54.3
2023-04-25T16:39:18.389Z,53.9
2023-04-25T16:40:52.585Z,54
2023-04-25T16:41:50.779Z,53.8
2023-04-25T16:43:24.000Z,53.6
2023-04-25T16:44:41.000Z,53.8
2023-04-25T16:45:57.360Z,54.1
2023-04-25T16:47:12.588Z,54.4
2023-04-25T16:48:27.796Z,54.4
2023-04-25T16:49:25.987Z,54.6
2023-04-25T16:51:00.000Z,52.8
2023-04-25T16:52:16.000Z,53.3
2023-04-25T16:53:32.000Z,53
2023-04-25T16:54:30.766Z,52
2023-04-25T16:56:04.000Z,50.9
2023-04-25T16:57:21.000Z,50.9
2023-04-25T16:58:37.000Z,50.5
2023-04-25T16:59:53.546Z,50.4
2023-04-25T17:01:09.000Z,51.5